Time;durP1;ratioP1;P1;durP2;ratioP2;P2;SDS_P1;SDS_P2;PMS_P1;PMS_P2;Temp;Humidity;BMP_temperature;BMP_pressure;BME280_temperature;BME280_humidity;BME280_pressure;Samples;Min_cycle;Max_cycle;Signal;HPM_P1;HPM_P2
2023/01/14 00:00:35;;;;;;;9.70;8.70;;;;;;;4.05;82.77;98753.91;89609;1269;23645;-70
2023/01/14 00:02:57;;;;;;;10.30;8.30;;;;;;;4.00;82.75;98755.98;89370;1271;99841;-71
2023/01/14 00:04:59;;;;;;;11.70;8.30;;;;;;;3.94;82.67;98763.59;89477;1269;25369;-70
2023/01/14 00:07:01;;;;;;;13.50;7.70;;;;;;;3.88;82.80;98761.64;89390;1268;22594;-72
2023/01/14 00:09:06;;;;;;;12.80;8.30;;;;;;;3.82;82.76;98766.14;89323;1270;99650;-72
2023/01/14 00:11:10;;;;;;;8.60;7.70;;;;;;;3.77;82.75;98770.07;89327;1269;22514;-71
2023/01/14 00:13:12;;;;;;;9.40;8.50;;;;;;;3.75;82.97;98781.42;89713;1269;22609;-71
2023/01/14 00:15:15;;;;;;;9.50;8.50;;;;;;;3.72;82.90;98775.77;89246;1271;99351;-70
2023/01/14 00:17:17;;;;;;;9.10;8.20;;;;;;;3.68;82.71;98782.63;89538;1269;23600;-69
2023/01/14 00:19:19;;;;;;;8.20;7.30;;;;;;;3.68;82.94;98787.49;89484;1262;99074;-71
2023/01/14 00:21:21;;;;;;;14.50;7.80;;;;;;;3.69;83.12;98781.74;89551;1269;24253;-71
2023/01/14 00:23:23;;;;;;;9.90;7.70;;;;;;;3.67;83.11;98782.31;89372;1267;22531;-71
2023/01/14 00:25:25;;;;;;;9.50;8.00;;;;;;;3.66;83.26;98789.63;89409;1270;102611;-72
2023/01/14 00:27:27;;;;;;;10.20;8.30;;;;;;;3.67;83.22;98792.73;89455;1265;22675;-70
2023/01/14 00:29:33;;;;;;;12.40;9.30;;;;;;;3.67;83.38;98793.59;89311;1274;22795;-72
2023/01/14 00:31:35;;;;;;;10.30;8.60;;;;;;;3.68;83.27;98793.93;89372;1267;98420;-71
2023/01/14 00:33:38;;;;;;;12.60;8.50;;;;;;;3.67;83.28;98793.08;89384;1272;23269;-71
2023/01/14 00:35:40;;;;;;;13.30;8.60;;;;;;;3.67;83.33;98794.48;89479;1269;22692;-71
2023/01/14 00:37:42;;;;;;;8.20;7.40;;;;;;;3.64;83.35;98793.14;89486;1268;98871;-72
2023/01/14 00:39:43;;;;;;;9.20;8.10;;;;;;;3.62;83.23;98802.23;89389;1270;22589;-71
2023/01/14 00:41:46;;;;;;;9.10;8.30;;;;;;;3.60;83.33;98802.80;89515;1270;23036;-72
2023/01/14 00:43:50;;;;;;;8.90;7.80;;;;;;;3.60;83.57;98803.65;89305;1265;98777;-71
2023/01/14 00:45:52;;;;;;;9.00;8.10;;;;;;;3.59;83.32;98805.06;89351;1271;22675;-71
2023/01/14 00:47:54;;;;;;;13.70;8.00;;;;;;;3.56;83.27;98806.52;89464;1270;24189;-71
2023/01/14 00:49:56;;;;;;;17.40;8.40;;;;;;;3.56;83.28;98804.79;89391;1271;99317;-71
2023/01/14 00:52:00;;;;;;;7.80;7.00;;;;;;;3.56;83.51;98807.75;89295;1271;22677;-71
2023/01/14 00:54:02;;;;;;;9.40;8.10;;;;;;;3.53;83.24;98810.94;89571;1270;25636;-72
2023/01/14 00:56:06;;;;;;;10.70;8.40;;;;;;;3.53;83.28;98812.33;89387;1269;98907;-71
2023/01/14 00:58:08;;;;;;;9.80;8.70;;;;;;;3.52;83.38;98818.94;89477;1269;22592;-72
2023/01/14 01:00:11;;;;;;;10.60;7.10;;;;;;;3.48;83.32;98815.90;89243;1271;22567;-70
2023/01/14 01:02:13;;;;;;;10.80;8.90;;;;;;;3.42;83.14;98807.70;89581;1269;98993;-71
2023/01/14 01:04:17;;;;;;;8.80;7.90;;;;;;;3.40;83.19;98810.35;89423;1265;22528;-71
2023/01/14 01:06:21;;;;;;;9.10;8.30;;;;;;;3.39;83.38;98809.86;89514;1270;22528;-71
2023/01/14 01:08:25;;;;;;;9.80;8.70;;;;;;;3.37;83.36;98808.33;89451;1271;245336;-70
2023/01/14 01:10:26;;;;;;;11.80;9.10;;;;;;;3.29;83.13;98801.40;89495;1270;22526;-70
2023/01/14 01:12:29;;;;;;;9.00;8.10;;;;;;;3.33;83.36;98808.41;89391;1271;24162;-71
2023/01/14 01:14:31;;;;;;;8.90;8.10;;;;;;;3.34;83.46;98808.59;89379;1274;98061;-71
2023/01/14 01:16:33;;;;;;;11.00;8.30;;;;;;;3.30;83.47;98805.88;89628;1269;22513;-71
2023/01/14 01:18:36;;;;;;;11.20;8.70;;;;;;;3.27;83.41;98810.45;89634;1269;22549;-71
2023/01/14 01:20:38;;;;;;;8.90;8.00;;;;;;;3.27;83.38;98815.15;89377;1271;99548;-71
2023/01/14 01:22:40;;;;;;;9.30;8.30;;;;;;;3.25;83.40;98813.97;89443;1269;22529;-71
2023/01/14 01:24:42;;;;;;;12.40;8.70;;;;;;;3.21;83.36;98807.45;89395;1271;22532;-72
2023/01/14 01:26:47;;;;;;;9.90;9.00;;;;;;;3.21;83.50;98815.97;89569;1262;98468;-72
2023/01/14 01:28:55;;;;;;;11.10;9.30;;;;;;;3.20;83.52;98816.85;89432;1269;22520;-71
2023/01/14 01:31:06;;;;;;;13.70;8.40;;;;;;;3.18;83.45;98810.30;89396;1270;23123;-73
2023/01/14 01:33:07;;;;;;;11.80;8.60;;;;;;;3.16;83.54;98812.59;89414;1271;98100;-71
2023/01/14 01:35:09;;;;;;;12.40;8.40;;;;;;;3.15;83.82;98815.91;89677;1270;24246;-72
2023/01/14 01:37:11;;;;;;;9.70;7.60;;;;;;;3.12;83.53;98815.98;89621;1270;22686;-72
2023/01/14 01:39:13;;;;;;;10.10;8.60;;;;;;;3.10;83.56;98818.44;89400;1271;97952;-71
2023/01/14 01:41:22;;;;;;;9.30;8.30;;;;;;;3.09;83.47;98819.35;89555;1268;22582;-72
2023/01/14 01:43:28;;;;;;;13.00;9.00;;;;;;;3.05;83.60;98816.65;89226;1272;99262;-71
2023/01/14 01:45:47;;;;;;;10.80;9.00;;;;;;;3.03;83.50;98820.17;89607;1269;25915;-71
2023/01/14 01:47:54;;;;;;;11.50;8.70;;;;;;;3.00;83.47;98814.84;89496;1269;22547;-70
2023/01/14 01:49:56;;;;;;;9.00;8.20;;;;;;;2.97;83.47;98820.09;89625;1270;98834;-71
2023/01/14 01:52:07;;;;;;;8.90;8.00;;;;;;;2.96;83.54;98821.67;89491;1263;22571;-71
2023/01/14 01:54:10;;;;;;;14.20;8.40;;;;;;;2.92;83.59;98820.56;89435;1271;22492;-70
2023/01/14 01:56:17;;;;;;;9.60;7.90;;;;;;;2.90;83.49;98822.48;89525;1270;98795;-73
2023/01/14 01:58:22;;;;;;;10.20;8.00;;;;;;;2.88;83.44;98818.70;89506;1268;22618;-71
2023/01/14 02:00:25;;;;;;;9.60;8.00;;;;;;;2.85;83.43;98814.94;89386;1271;22835;-71
2023/01/14 02:02:29;;;;;;;8.80;7.70;;;;;;;2.82;83.51;98815.02;89237;1271;99605;-73
2023/01/14 02:04:31;;;;;;;13.90;8.40;;;;;;;2.79;83.31;98815.59;89156;1270;22483;-72
2023/01/14 02:06:33;;;;;;;11.00;8.40;;;;;;;2.76;83.36;98819.63;89103;1271;22523;-71
2023/01/14 02:08:39;;;;;;;13.90;8.50;;;;;;;2.73;83.39;98822.99;89180;1271;99094;-72
2023/01/14 02:10:50;;;;;;;11.40;9.50;;;;;;;2.72;83.31;98826.65;89156;1271;22512;-72
2023/01/14 02:13:24;;;;;;;10.30;9.30;;;;;;;2.72;83.56;98829.61;89174;1267;22625;-71
2023/01/14 02:15:37;;;;;;;10.70;9.20;;;;;;;2.69;83.64;98824.28;88943;1275;24286;-72
2023/01/14 02:17:39;;;;;;;10.70;8.80;;;;;;;2.68;83.84;98828.80;88927;1271;24356;-72
2023/01/14 02:19:41;;;;;;;10.00;8.30;;;;;;;2.66;83.58;98830.59;88685;1271;99068;-72
2023/01/14 02:22:35;;;;;;;10.90;8.50;;;;;;;2.64;83.66;98830.10;88934;1273;24588;-72
2023/01/14 02:24:48;;;;;;;9.60;8.50;;;;;;;2.63;83.72;98832.56;88469;1284;27170;-71
2023/01/14 02:27:06;;;;;;;10.70;8.80;;;;;;;2.62;83.74;98836.75;88492;1281;98927;-75
2023/01/14 02:29:47;;;;;;;11.10;9.20;;;;;;;2.62;83.81;98836.73;88534;1281;24997;-71
2023/01/14 02:31:55;;;;;;;10.20;8.90;;;;;;;2.62;83.80;98833.44;88444;1276;99360;-71
2023/01/14 02:34:07;;;;;;;12.40;9.40;;;;;;;2.65;84.25;98839.27;88544;1281;23295;-71
2023/01/14 02:36:36;;;;;;;10.60;9.20;;;;;;;2.67;84.12;98837.68;88796;1281;22582;-71
2023/01/14 02:39:01;;;;;;;12.80;9.20;;;;;;;2.68;83.97;98840.96;88427;1283;100428;-71
2023/01/14 02:44:07;;;;;;;9.40;8.20;;;;;;;2.68;84.36;98836.45;88546;1275;99274;-71
2023/01/14 02:46:29;;;;;;;10.30;8.10;;;;;;;2.68;84.23;98839.38;88504;1278;23128;-70
2023/01/14 02:48:32;;;;;;;9.10;8.00;;;;;;;2.69;84.39;98839.53;88346;1283;24179;-70
2023/01/14 02:50:36;;;;;;;15.10;8.10;;;;;;;2.69;84.05;98841.10;88198;1280;99635;-71
2023/01/14 02:52:37;;;;;;;8.10;7.30;;;;;;;2.69;84.05;98841.61;88649;1277;22575;-71
2023/01/14 02:54:39;;;;;;;10.60;8.40;;;;;;;2.70;84.25;98846.30;88576;1279;22818;-71
2023/01/14 02:56:41;;;;;;;7.80;7.10;;;;;;;2.69;84.34;98847.00;88685;1270;100074;-71
2023/01/14 02:59:19;;;;;;;13.60;8.10;;;;;;;2.68;84.46;98847.20;88757;1277;22566;-72
2023/01/14 03:01:46;;;;;;;9.00;8.10;;;;;;;2.66;84.27;98848.61;89326;1270;24422;-72
2023/01/14 03:04:27;;;;;;;9.00;7.20;;;;;;;2.63;83.80;98851.63;89310;1269;22981;-71
2023/01/14 03:06:44;;;;;;;11.50;7.60;;;;;;;2.56;84.11;98858.35;89240;1271;25428;-71
2023/01/14 03:08:48;;;;;;;8.90;7.40;;;;;;;2.50;84.09;98855.48;89132;1270;99080;-70
2023/01/14 03:11:02;;;;;;;10.70;7.80;;;;;;;2.44;84.03;98853.35;89366;1268;22709;-71
2023/01/14 03:13:15;;;;;;;14.80;8.60;;;;;;;2.40;83.97;98854.99;89302;1271;22566;-72
2023/01/14 03:15:22;;;;;;;10.60;7.90;;;;;;;2.35;83.97;98852.63;89377;1269;99262;-71
2023/01/14 03:17:34;;;;;;;10.40;9.10;;;;;;;2.31;84.05;98854.60;89315;1269;22599;-71
2023/01/14 03:19:41;;;;;;;14.90;8.40;;;;;;;2.28;84.03;98864.53;89135;1271;101532;-71
2023/01/14 03:21:53;;;;;;;11.20;8.60;;;;;;;2.24;84.03;98866.86;89185;1271;23194;-71
2023/01/14 03:24:12;;;;;;;12.60;8.50;;;;;;;2.19;83.87;98868.50;89363;1254;24653;-71
2023/01/14 03:26:15;;;;;;;9.80;8.90;;;;;;;2.16;84.04;98874.43;89210;1262;99130;-73
2023/01/14 03:28:22;;;;;;;10.80;8.50;;;;;;;2.14;83.84;98880.69;89212;1263;23063;-71
2023/01/14 03:30:30;;;;;;;12.60;8.00;;;;;;;2.13;84.07;98877.79;89215;1271;24241;-71
2023/01/14 03:33:04;;;;;;;13.00;9.10;;;;;;;2.10;83.94;98880.77;89170;1265;98965;-71
2023/01/14 03:35:21;;;;;;;9.60;8.60;;;;;;;2.09;84.19;98888.77;89231;1263;22586;-71
2023/01/14 03:37:27;;;;;;;11.00;9.80;;;;;;;2.07;84.12;98885.48;89167;1270;23854;-72
2023/01/14 03:39:29;;;;;;;13.20;9.50;;;;;;;2.07;83.76;98888.96;89690;1271;22742;-71
2023/01/14 03:43:55;;;;;;;11.10;9.90;;;;;;;2.05;84.34;98893.50;89101;1271;98869;-72
2023/01/14 03:45:57;;;;;;;12.50;10.60;;;;;;;2.06;84.25;98905.09;89195;1271;22894;-72
2023/01/14 03:47:59;;;;;;;10.50;9.50;;;;;;;2.06;84.35;98901.27;89212;1271;22576;-72
2023/01/14 03:50:05;;;;;;;13.70;9.40;;;;;;;2.08;84.39;98909.75;89033;1274;98141;-70
2023/01/14 03:52:20;;;;;;;11.70;9.90;;;;;;;2.08;84.13;98912.52;89152;1271;23002;-71
2023/01/14 03:54:34;;;;;;;12.20;10.10;;;;;;;2.10;84.14;98921.50;89195;1270;25424;-72
2023/01/14 03:56:35;;;;;;;12.90;10.40;;;;;;;2.12;84.42;98918.35;89084;1255;99118;-71
2023/01/14 03:58:51;;;;;;;13.90;10.70;;;;;;;2.14;84.38;98923.53;89304;1272;22641;-70
2023/01/14 04:00:56;;;;;;;16.60;10.60;;;;;;;2.16;84.63;98925.06;89308;1270;22614;-71
2023/01/14 04:03:01;;;;;;;15.40;11.00;;;;;;;2.18;84.59;98925.73;89122;1266;99201;-72
2023/01/14 04:05:03;;;;;;;11.60;10.30;;;;;;;2.19;84.22;98928.13;89979;1269;22567;-71
2023/01/14 04:07:06;;;;;;;12.20;11.00;;;;;;;2.21;84.62;98930.17;89141;1261;22568;-71
2023/01/14 04:09:08;;;;;;;16.70;10.90;;;;;;;2.24;84.35;98929.63;89035;1264;99420;-70
2023/01/14 04:11:10;;;;;;;14.20;11.80;;;;;;;2.26;84.80;98930.98;89283;1258;23473;-71
2023/01/14 04:15:35;;;;;;;15.30;12.90;;;;;;;2.32;84.37;98937.65;89319;1265;24244;-72
2023/01/14 04:17:37;;;;;;;16.90;13.70;;;;;;;2.35;84.51;98936.90;89241;1270;22485;-72
2023/01/14 04:19:40;;;;;;;16.60;12.40;;;;;;;2.37;84.79;98935.30;89011;1273;99836;-71
2023/01/14 04:21:41;;;;;;;14.50;12.10;;;;;;;2.39;84.53;98935.11;89469;1270;25798;-72
2023/01/14 04:23:43;;;;;;;19.20;12.60;;;;;;;2.43;84.74;98939.73;89244;1271;22492;-71
2023/01/14 04:25:45;;;;;;;18.30;12.60;;;;;;;2.45;84.79;98940.73;89099;1271;99240;-71
2023/01/14 04:27:47;;;;;;;20.60;13.00;;;;;;;2.46;84.74;98941.58;89174;1270;22568;-71
2023/01/14 04:29:48;;;;;;;15.40;12.50;;;;;;;2.48;84.37;98943.63;89096;1270;22511;-72
2023/01/14 04:31:50;;;;;;;14.80;11.40;;;;;;;2.50;84.64;98943.42;89283;1269;99692;-72
2023/01/14 04:33:52;;;;;;;16.80;12.00;;;;;;;2.54;84.76;98943.02;89193;1269;22532;-72
2023/01/14 04:35:53;;;;;;;15.20;11.20;;;;;;;2.56;84.51;98942.98;89220;1269;22642;-71
2023/01/14 04:37:55;;;;;;;21.70;12.30;;;;;;;2.56;84.71;98944.38;89187;1270;100748;-71
2023/01/14 04:39:58;;;;;;;18.30;12.50;;;;;;;2.58;84.60;98947.29;89277;1271;22671;-72
2023/01/14 04:44:19;;;;;;;15.40;12.20;;;;;;;2.57;84.71;98941.05;89136;1269;99422;-72
2023/01/14 04:46:21;;;;;;;18.20;13.30;;;;;;;2.60;84.53;98948.30;89397;1269;22675;-72
2023/01/14 04:48:25;;;;;;;15.70;12.50;;;;;;;2.61;84.52;98949.15;89353;1269;22522;-70
2023/01/14 04:50:41;;;;;;;17.50;12.20;;;;;;;2.61;84.64;98947.06;89115;1270;98364;-71
2023/01/14 04:52:42;;;;;;;18.30;12.50;;;;;;;2.64;84.79;98953.09;89188;1270;23957;-71
2023/01/14 04:54:44;;;;;;;19.00;12.10;;;;;;;2.66;84.72;98950.28;89240;1272;24214;-71
2023/01/14 04:56:46;;;;;;;18.40;12.90;;;;;;;2.65;84.82;98950.45;89161;1272;99310;-71
2023/01/14 04:58:47;;;;;;;19.70;13.30;;;;;;;2.68;84.95;98954.23;89163;1263;22608;-72
2023/01/14 05:00:50;;;;;;;23.10;12.60;;;;;;;2.71;84.80;98954.89;89249;1269;22693;-71
2023/01/14 05:02:52;;;;;;;26.10;13.50;;;;;;;2.73;84.73;98957.12;89160;1273;99676;-71
2023/01/14 05:04:54;;;;;;;14.90;13.10;;;;;;;2.74;84.94;98955.70;89225;1270;22911;-73
2023/01/14 05:06:56;;;;;;;20.80;13.20;;;;;;;2.75;84.63;98958.11;89189;1270;23001;-73
2023/01/14 05:08:58;;;;;;;19.70;13.50;;;;;;;2.76;84.61;98958.95;89080;1272;99275;-71
2023/01/14 05:11:03;;;;;;;18.40;12.10;;;;;;;2.77;84.90;98959.13;89379;1269;23346;-72
2023/01/14 05:13:07;;;;;;;14.30;11.30;;;;;;;2.76;84.70;98963.64;89298;1271;22569;-71
2023/01/14 05:15:10;;;;;;;16.50;13.00;;;;;;;2.76;84.79;98956.71;89377;1272;102611;-71
2023/01/14 05:17:11;;;;;;;14.60;12.60;;;;;;;2.76;85.06;98959.13;89257;1270;23042;-72
2023/01/14 05:19:13;;;;;;;18.20;13.00;;;;;;;2.77;84.91;98957.90;89309;1269;22697;-71
2023/01/14 05:21:15;;;;;;;21.50;14.00;;;;;;;2.80;84.99;98958.73;89300;1265;98232;-72
2023/01/14 05:23:17;;;;;;;20.30;14.40;;;;;;;2.82;84.97;98962.84;89252;1270;26171;-71
2023/01/14 05:25:18;;;;;;;17.20;14.60;;;;;;;2.84;85.09;98969.08;89228;1272;22586;-71
2023/01/14 05:27:20;;;;;;;19.40;13.60;;;;;;;2.85;85.13;98969.56;89181;1270;99236;-71
2023/01/14 05:29:22;;;;;;;19.50;14.30;;;;;;;2.87;84.95;98973.34;89130;1274;22551;-71
2023/01/14 05:31:23;;;;;;;22.90;15.30;;;;;;;2.88;85.00;98974.37;89222;1271;25249;-72
2023/01/14 05:33:25;;;;;;;22.00;15.40;;;;;;;2.89;84.92;98982.16;89183;1271;101000;-72
2023/01/14 05:35:27;;;;;;;20.30;16.40;;;;;;;2.90;84.97;98984.39;89196;1272;23547;-72
2023/01/14 05:37:31;;;;;;;22.90;15.60;;;;;;;2.91;85.15;98989.26;89355;1265;22560;-72
2023/01/14 05:39:32;;;;;;;20.70;15.00;;;;;;;2.91;85.14;98994.46;89229;1272;98560;-72
2023/01/14 05:41:34;;;;;;;18.20;14.40;;;;;;;2.91;85.10;98995.15;89318;1270;25341;-73
2023/01/14 05:46:03;;;;;;;21.50;14.80;;;;;;;2.92;85.11;99001.73;89310;1271;23894;-71
2023/01/14 05:48:06;;;;;;;20.70;14.80;;;;;;;2.92;84.97;99003.64;89146;1271;24296;-71
2023/01/14 05:50:12;;;;;;;16.90;13.80;;;;;;;2.93;85.00;99002.94;89235;1270;99230;-72
2023/01/14 05:52:14;;;;;;;21.60;13.40;;;;;;;2.94;85.06;99001.52;89071;1267;26554;-71
2023/01/14 05:54:15;;;;;;;20.20;13.10;;;;;;;2.96;85.01;99005.84;89199;1270;22658;-71
2023/01/14 05:56:17;;;;;;;22.00;14.00;;;;;;;2.97;85.29;99005.66;89117;1269;99229;-71
2023/01/14 05:58:19;;;;;;;17.10;11.60;;;;;;;2.98;85.08;99008.40;89204;1270;22500;-70
2023/01/14 06:07:24;;;;;;;21.20;14.20;;;;;;;3.04;85.43;99014.90;89356;1269;22522;-71
2023/01/14 06:09:25;;;;;;;21.10;13.80;;;;;;;3.06;85.07;99022.33;89194;1268;99142;-70
2023/01/14 06:11:29;;;;;;;21.20;14.20;;;;;;;3.08;85.20;99026.45;89344;1270;22556;-71
2023/01/14 06:13:34;;;;;;;18.20;13.60;;;;;;;3.09;85.21;99027.99;89014;1273;22587;-72
2023/01/14 06:15:39;;;;;;;19.90;14.70;;;;;;;3.11;85.27;99030.73;89246;1269;24218;-72
2023/01/14 06:17:46;;;;;;;20.00;14.50;;;;;;;3.12;85.21;99028.48;89239;1257;24187;-72
2023/01/14 06:19:48;;;;;;;18.10;14.50;;;;;;;3.14;85.31;99029.30;89156;1270;99842;-71
2023/01/14 06:21:50;;;;;;;21.70;14.20;;;;;;;3.15;85.31;99031.02;89023;1271;22568;-71
2023/01/14 06:23:53;;;;;;;20.30;14.30;;;;;;;3.18;85.32;99034.45;88962;1270;22989;-71
2023/01/14 06:25:55;;;;;;;27.60;15.20;;;;;;;3.19;85.29;99031.83;88931;1262;103240;-71
2023/01/14 06:27:58;;;;;;;21.60;14.30;;;;;;;3.20;85.23;99033.54;88871;1271;22627;-71
2023/01/14 06:29:59;;;;;;;20.60;13.70;;;;;;;3.22;85.49;99034.03;89274;1270;22562;-70
2023/01/14 06:32:01;;;;;;;22.10;13.00;;;;;;;3.23;85.26;99038.01;88698;1272;99296;-71
2023/01/14 06:34:03;;;;;;;19.30;12.80;;;;;;;3.24;85.46;99041.11;88927;1270;22576;-71
2023/01/14 06:36:07;;;;;;;22.20;13.60;;;;;;;3.27;85.49;99043.51;88903;1267;22571;-71
2023/01/14 06:38:11;;;;;;;24.60;13.70;;;;;;;3.28;85.43;99045.92;88820;1266;99266;-72
2023/01/14 06:40:13;;;;;;;16.70;12.60;;;;;;;3.29;85.64;99051.12;88957;1268;22472;-70
2023/01/14 06:42:16;;;;;;;20.90;14.00;;;;;;;3.30;85.44;99053.70;89078;1271;22650;-72
2023/01/14 06:44:18;;;;;;;27.50;12.90;;;;;;;3.32;85.66;99052.10;89054;1266;99078;-72
2023/01/14 06:46:20;;;;;;;16.00;12.90;;;;;;;3.33;85.45;99053.64;88944;1270;23170;-72
2023/01/14 06:48:23;;;;;;;21.00;13.10;;;;;;;3.33;85.36;99056.41;88989;1270;22992;-71
2023/01/14 06:50:24;;;;;;;13.80;12.30;;;;;;;3.34;85.35;99057.63;89039;1274;99599;-71
2023/01/14 06:52:26;;;;;;;23.70;13.30;;;;;;;3.34;85.32;99057.27;88970;1273;25355;-71
2023/01/14 06:54:28;;;;;;;26.80;14.30;;;;;;;3.35;85.20;99058.64;89087;1270;22530;-71
2023/01/14 06:56:30;;;;;;;18.30;12.80;;;;;;;3.36;85.34;99058.45;88987;1269;99129;-71
2023/01/14 06:58:32;;;;;;;18.80;13.10;;;;;;;3.37;85.38;99063.64;88845;1264;23886;-72
2023/01/14 07:00:33;;;;;;;22.60;13.00;;;;;;;3.38;85.64;99070.23;88967;1269;22525;-72
2023/01/14 07:02:35;;;;;;;25.00;14.00;;;;;;;3.38;85.54;99071.61;88729;1271;99110;-71
2023/01/14 07:04:38;;;;;;;15.30;12.30;;;;;;;3.38;85.33;99075.42;89216;1259;24212;-71
2023/01/14 07:06:40;;;;;;;18.30;12.80;;;;;;;3.39;85.62;99075.23;88898;1270;24212;-72
2023/01/14 07:08:41;;;;;;;21.00;12.80;;;;;;;3.40;85.52;99075.92;88877;1270;99738;-72
2023/01/14 07:10:49;;;;;;;17.10;12.90;;;;;;;3.41;85.51;99072.95;88936;1269;24258;-72
2023/01/14 07:12:51;;;;;;;15.90;12.40;;;;;;;3.43;85.48;99076.57;89344;1271;22544;-72
2023/01/14 07:14:53;;;;;;;24.40;13.50;;;;;;;3.44;85.56;99076.20;88910;1268;100614;-73
2023/01/14 07:16:54;;;;;;;21.50;12.70;;;;;;;3.46;85.65;99078.27;88979;1269;24278;-73
2023/01/14 07:18:56;;;;;;;23.80;13.20;;;;;;;3.47;85.65;99080.67;88944;1271;22570;-72
2023/01/14 07:20:59;;;;;;;15.90;13.30;;;;;;;3.49;85.82;99080.81;89000;1265;100019;-71
2023/01/14 07:23:01;;;;;;;18.00;12.60;;;;;;;3.50;85.59;99084.09;88813;1271;24278;-72
2023/01/14 07:25:05;;;;;;;24.50;13.20;;;;;;;3.52;85.47;99083.17;88930;1272;24247;-73
2023/01/14 07:27:06;;;;;;;24.20;14.90;;;;;;;3.54;85.73;99077.59;89302;1270;99100;-72
2023/01/14 07:29:09;;;;;;;21.40;14.10;;;;;;;3.55;85.76;99078.25;88882;1271;25262;-71
2023/01/14 07:31:11;;;;;;;19.80;13.70;;;;;;;3.57;85.49;99078.73;88927;1272;22612;-72
2023/01/14 07:33:12;;;;;;;19.80;13.70;;;;;;;3.58;85.65;99074.36;89023;1271;99345;-71
2023/01/14 07:35:14;;;;;;;16.20;13.60;;;;;;;3.60;85.52;99082.53;89080;1266;22526;-72
2023/01/14 07:37:16;;;;;;;20.90;13.60;;;;;;;3.61;85.64;99085.98;89063;1269;22654;-71
2023/01/14 07:39:18;;;;;;;21.90;14.80;;;;;;;3.63;85.70;99089.05;88765;1271;99140;-71
2023/01/14 07:41:20;;;;;;;21.30;14.60;;;;;;;3.64;85.50;99091.13;89091;1270;23457;-71
2023/01/14 07:43:22;;;;;;;26.60;15.70;;;;;;;3.67;85.64;99096.98;89102;1268;22694;-71
2023/01/14 07:45:25;;;;;;;22.70;14.70;;;;;;;3.69;85.55;99093.48;88771;1271;100671;-72
2023/01/14 07:47:27;;;;;;;26.20;14.40;;;;;;;3.71;85.67;99092.73;88835;1272;24109;-71
2023/01/14 07:49:29;;;;;;;18.00;14.90;;;;;;;3.74;85.74;99096.34;88960;1270;22927;-72
2023/01/14 07:51:30;;;;;;;21.50;14.20;;;;;;;3.77;85.61;99100.11;88831;1271;99361;-72
2023/01/14 07:53:32;;;;;;;20.80;13.30;;;;;;;3.80;85.78;99103.70;88914;1270;22639;-72
2023/01/14 07:55:38;;;;;;;18.20;13.90;;;;;;;3.81;85.74;99106.81;88912;1272;23076;-71
2023/01/14 07:57:39;;;;;;;20.00;13.90;;;;;;;3.84;85.78;99106.92;89190;1269;22726;-72
2023/01/14 07:59:41;;;;;;;20.20;13.90;;;;;;;3.87;85.82;99114.86;88860;1272;22676;-71
2023/01/14 08:01:43;;;;;;;21.40;12.90;;;;;;;3.90;85.66;99112.90;88954;1272;99542;-72
2023/01/14 08:03:45;;;;;;;16.10;13.00;;;;;;;3.92;85.73;99119.98;88937;1270;22684;-73
2023/01/14 08:05:46;;;;;;;21.90;12.60;;;;;;;3.95;85.90;99114.91;88878;1267;22570;-72
2023/01/14 08:07:48;;;;;;;25.20;12.50;;;;;;;3.98;85.87;99117.45;88953;1270;99388;-72
2023/01/14 08:09:50;;;;;;;20.70;12.20;;;;;;;4.02;85.79;99122.42;88936;1272;22527;-71
2023/01/14 08:11:53;;;;;;;19.90;11.50;;;;;;;4.05;85.83;99120.61;88976;1266;24259;-72
2023/01/14 08:13:55;;;;;;;17.00;11.80;;;;;;;4.09;85.94;99116.89;88987;1271;99450;-71
2023/01/14 08:15:59;;;;;;;17.90;12.20;;;;;;;4.13;85.87;99114.73;89014;1265;25391;-73
2023/01/14 08:18:01;;;;;;;21.00;11.10;;;;;;;4.17;85.91;99114.64;89026;1270;25580;-73
2023/01/14 08:20:04;;;;;;;24.50;11.00;;;;;;;4.21;85.91;99116.48;88954;1270;99415;-72
2023/01/14 08:22:06;;;;;;;15.80;9.60;;;;;;;4.26;85.87;99117.59;89050;1268;22579;-73
2023/01/14 08:24:07;;;;;;;17.60;9.10;;;;;;;4.30;85.90;99118.05;89078;1270;22588;-73
2023/01/14 08:26:12;;;;;;;14.80;9.50;;;;;;;4.34;85.83;99120.91;88978;1265;99144;-73
2023/01/14 08:28:14;;;;;;;14.30;8.20;;;;;;;4.36;85.81;99119.14;88812;1272;23126;-72
2023/01/14 08:30:16;;;;;;;15.70;8.70;;;;;;;4.41;85.84;99123.72;88860;1272;22609;-72
2023/01/14 08:32:18;;;;;;;17.00;9.00;;;;;;;4.42;85.95;99123.02;88965;1270;100194;-73
2023/01/14 08:34:21;;;;;;;12.20;8.70;;;;;;;4.48;85.72;99129.15;89061;1265;22573;-73
2023/01/14 08:36:22;;;;;;;19.40;10.20;;;;;;;4.51;85.73;99129.77;88893;1273;23365;-72
2023/01/14 08:38:24;;;;;;;12.20;9.30;;;;;;;4.55;85.86;99132.12;88961;1270;99100;-72
2023/01/14 08:40:26;;;;;;;14.20;9.10;;;;;;;4.58;85.76;99127.89;89072;1270;25408;-72
2023/01/14 08:42:28;;;;;;;14.80;8.60;;;;;;;4.62;85.73;99128.52;88972;1267;28143;-71
2023/01/14 08:44:29;;;;;;;12.20;8.20;;;;;;;4.64;85.72;99131.77;88689;1273;99673;-72
2023/01/14 08:46:31;;;;;;;13.20;8.30;;;;;;;4.69;85.64;99134.11;89117;1272;22634;-72
2023/01/14 08:48:34;;;;;;;13.10;7.80;;;;;;;4.71;85.58;99138.06;88950;1273;22571;-72
2023/01/14 08:50:36;;;;;;;22.70;9.20;;;;;;;4.75;85.66;99140.59;88954;1264;101039;-72
2023/01/14 08:52:37;;;;;;;20.40;7.80;;;;;;;4.78;85.55;99137.90;88951;1262;22816;-71
2023/01/14 08:54:39;;;;;;;16.80;7.10;;;;;;;4.82;85.59;99141.30;88873;1266;24378;-72
2023/01/14 08:56:41;;;;;;;11.80;7.80;;;;;;;4.85;85.63;99145.77;88854;1267;99141;-72
2023/01/14 08:58:43;;;;;;;11.10;7.50;;;;;;;4.88;85.51;99141.85;88894;1273;25319;-70
2023/01/14 09:00:45;;;;;;;12.60;7.60;;;;;;;4.92;85.62;99144.71;88764;1273;22541;-71
2023/01/14 09:02:46;;;;;;;16.00;7.60;;;;;;;4.95;85.57;99142.21;89009;1270;99559;-71
2023/01/14 09:04:48;;;;;;;14.40;7.50;;;;;;;5.00;85.51;99143.86;89021;1269;22519;-72
2023/01/14 09:18:15;;;;;;;13.90;8.00;;;;;;;5.19;85.45;99152.66;88931;1270;22529;-74
2023/01/14 09:20:18;;;;;;;16.70;7.20;;;;;;;5.22;85.28;99150.15;88910;1270;99120;-74
2023/01/14 09:22:22;;;;;;;14.80;8.40;;;;;;;5.19;85.52;99140.28;88878;1273;22656;-73
2023/01/14 09:24:24;;;;;;;15.00;7.60;;;;;;;5.30;85.44;99146.80;89238;1265;23505;-72
2023/01/14 09:26:26;;;;;;;15.90;8.80;;;;;;;5.32;85.45;99139.80;89066;1270;99547;-73
2023/01/14 09:28:28;;;;;;;17.90;8.00;;;;;;;5.36;85.38;99143.02;89073;1272;22570;-73
2023/01/14 09:30:29;;;;;;;18.30;9.60;;;;;;;5.39;85.30;99143.11;89281;1270;24049;-71
2023/01/14 09:32:37;;;;;;;16.00;8.20;;;;;;;5.42;85.30;99140.61;89009;1264;99116;-77
2023/01/14 09:34:41;;;;;;;12.70;8.10;;;;;;;5.46;85.32;99137.89;89116;1270;23542;-73
2023/01/14 09:36:44;;;;;;;18.20;9.30;;;;;;;5.52;85.36;99143.66;89561;1272;22623;-72
2023/01/14 09:38:45;;;;;;;25.50;9.20;;;;;;;5.54;85.31;99140.30;89057;1267;99113;-72
2023/01/14 09:40:47;;;;;;;19.10;8.60;;;;;;;5.61;85.25;99142.04;89442;1270;24270;-72
2023/01/14 09:42:50;;;;;;;16.20;7.90;;;;;;;5.69;85.32;99143.42;89086;1273;22550;-70
2023/01/14 09:44:58;;;;;;;17.10;7.80;;;;;;;5.79;85.17;99146.48;89134;1263;98940;-69
2023/01/14 09:47:00;;;;;;;11.10;7.90;;;;;;;5.88;85.29;99148.51;89001;1274;25771;-70
2023/01/14 09:49:04;;;;;;;14.40;8.20;;;;;;;5.96;85.24;99149.88;89125;1263;22544;-70
2023/01/14 09:51:12;;;;;;;14.00;7.70;;;;;;;6.02;85.28;99150.98;89135;1270;98508;-70
2023/01/14 09:53:54;;;;;;;14.50;8.10;;;;;;;6.04;85.04;99147.96;89173;1274;23106;-70
2023/01/14 09:56:01;;;;;;;16.50;7.50;;;;;;;6.08;85.08;99146.80;89139;1270;99371;-70
2023/01/14 09:58:11;;;;;;;13.50;7.60;;;;;;;6.12;84.88;99147.55;89216;1260;22537;-69
2023/01/14 10:00:28;;;;;;;13.70;8.20;;;;;;;6.15;84.99;99141.55;89104;1273;22646;-70
2023/01/14 10:02:50;;;;;;;13.00;8.20;;;;;;;6.13;84.86;99140.73;89058;1270;98143;-70
2023/01/14 10:05:14;;;;;;;11.60;7.10;;;;;;;6.11;84.79;99136.76;89304;1270;24230;-70
2023/01/14 10:07:18;;;;;;;14.50;8.70;;;;;;;6.10;84.87;99133.98;89236;1269;22535;-70
2023/01/14 10:09:27;;;;;;;13.50;7.90;;;;;;;6.11;84.64;99130.15;89202;1262;98877;-69
2023/01/14 10:11:35;;;;;;;16.50;7.90;;;;;;;6.13;84.77;99125.88;89253;1270;22576;-70
2023/01/14 10:13:41;;;;;;;19.30;8.00;;;;;;;6.20;84.70;99123.09;89072;1270;99240;-69
2023/01/14 10:16:02;;;;;;;17.30;8.60;;;;;;;6.38;84.95;99118.57;89169;1264;22567;-71
2023/01/14 10:18:17;;;;;;;16.40;8.30;;;;;;;6.72;84.92;99116.86;89182;1273;22541;-72